Time;durP1;ratioP1;P1;durP2;ratioP2;P2;SDS_P1;SDS_P2;PMS_P1;PMS_P2;Temp;Humidity;BMP_temperature;BMP_pressure;BME280_temperature;BME280_humidity;BME280_pressure;Samples;Min_cycle;Max_cycle;Signal;HPM_P1;HPM_P2
2022/01/19 00:01:38;;;;;;;;;18.50;17.25;;;;;9.18;100.00;102805.28;5017627;28;45320;-79
2022/01/19 00:04:04;;;;;;;;;20.25;18.00;;;;;9.19;100.00;102801.91;5019033;28;45454;-78
2022/01/19 00:06:31;;;;;;;;;22.25;18.50;;;;;9.20;100.00;102801.13;5043146;28;46468;-78
2022/01/19 00:08:56;;;;;;;;;23.00;19.00;;;;;9.21;100.00;102806.44;5031003;28;47016;-78
2022/01/19 00:11:22;;;;;;;;;13.50;13.00;;;;;9.20;100.00;102804.63;5037320;28;45529;-78
2022/01/19 00:13:49;;;;;;;;;22.00;17.25;;;;;9.20;100.00;102796.88;5046420;28;45412;-79
2022/01/19 00:16:15;;;;;;;;;21.00;19.25;;;;;9.22;100.00;102799.56;5047064;28;45542;-80
2022/01/19 00:18:41;;;;;;;;;21.25;19.75;;;;;9.21;100.00;102790.00;5031829;28;45674;-80
2022/01/19 00:21:07;;;;;;;;;20.00;15.75;;;;;9.18;100.00;102776.84;5049383;28;45240;-80
2022/01/19 00:23:32;;;;;;;;;19.75;17.50;;;;;9.18;100.00;102763.94;5037236;28;45378;-80
2022/01/19 00:25:58;;;;;;;;;18.00;16.00;;;;;9.19;100.00;102747.63;5048354;28;45363;-79
2022/01/19 00:28:24;;;;;;;;;17.75;17.00;;;;;9.18;100.00;102741.56;5057857;28;46271;-80
2022/01/19 00:30:51;;;;;;;;;17.25;12.00;;;;;9.18;100.00;102730.34;5057173;28;45498;-80
2022/01/19 00:33:19;;;;;;;;;22.00;18.25;;;;;9.16;100.00;102729.31;5057650;28;45465;-79
2022/01/19 00:35:45;;;;;;;;;17.25;17.00;;;;;9.14;100.00;102716.25;5047181;28;45490;-80
2022/01/19 00:38:11;;;;;;;;;18.25;15.75;;;;;9.15;100.00;102710.28;5036552;28;45257;-79
2022/01/19 00:40:38;;;;;;;;;19.25;16.00;;;;;9.15;100.00;102718.03;5033536;28;45401;-78
2022/01/19 00:43:04;;;;;;;;;17.50;14.00;;;;;9.12;100.00;102728.16;5037288;28;45459;-79
2022/01/19 00:45:29;;;;;;;;;19.00;17.50;;;;;9.12;100.00;102735.91;5035940;28;45540;-80
2022/01/19 00:47:55;;;;;;;;;20.00;16.50;;;;;9.14;100.00;102749.84;5052844;28;46400;-80
2022/01/19 00:50:24;;;;;;;;;20.75;17.00;;;;;9.10;100.00;102737.47;5036948;28;45432;-78
2022/01/19 00:52:51;;;;;;;;;21.50;18.75;;;;;9.05;100.00;102734.50;5036968;28;45172;-80
2022/01/19 00:55:18;;;;;;;;;20.75;16.75;;;;;9.08;100.00;102739.00;5037349;28;45334;-80
2022/01/19 00:57:43;;;;;;;;;20.50;17.25;;;;;9.06;100.00;102750.88;5035302;28;47988;-79
2022/01/19 01:00:13;;;;;;;;;20.75;18.25;;;;;9.06;100.00;102750.88;5036264;28;45365;-79
2022/01/19 01:02:40;;;;;;;;;18.75;17.50;;;;;9.04;100.00;102742.09;5033432;28;45606;-76
2022/01/19 01:05:06;;;;;;;;;16.00;13.50;;;;;9.05;100.00;102738.75;5034435;28;45448;-79
2022/01/19 01:07:33;;;;;;;;;20.25;16.50;;;;;9.05;100.00;102734.50;5017843;28;46455;-78
2022/01/19 01:10:02;;;;;;;;;20.00;17.25;;;;;9.04;100.00;102732.69;5021980;28;46046;-79
2022/01/19 01:12:42;;;;;;;;;16.75;16.00;;;;;9.03;100.00;102725.72;5016725;28;45292;-76
2022/01/19 01:15:27;;;;;;;;;16.25;13.00;;;;;9.00;100.00;102711.66;5016794;28;45450;-79
2022/01/19 01:20:32;;;;;;;;;19.25;17.00;;;;;9.03;100.00;102706.72;5034200;28;45970;-79
2022/01/19 01:22:58;;;;;;;;;19.00;17.00;;;;;9.02;100.00;102690.31;5016867;28;45269;-79
2022/01/19 01:25:24;;;;;;;;;20.00;16.00;;;;;9.02;100.00;102699.72;5017186;28;45404;-79
2022/01/19 01:27:51;;;;;;;;;18.50;16.00;;;;;9.03;100.00;102689.53;5016189;28;46425;-78
2022/01/19 01:30:17;;;;;;;;;19.00;17.25;;;;;9.03;100.00;102704.13;5015127;28;45809;-80
2022/01/19 01:32:43;;;;;;;;;18.50;17.50;;;;;9.00;100.00;102703.91;5011566;28;45487;-80
2022/01/19 01:35:09;;;;;;;;;20.50;17.75;;;;;9.00;100.00;102711.66;5036997;28;45388;-79
2022/01/19 01:37:35;;;;;;;;;19.75;19.25;;;;;9.01;100.00;102708.28;5032194;28;46716;-79
2022/01/19 01:40:02;;;;;;;;;23.25;19.00;;;;;9.02;100.00;102712.66;5028215;28;45387;-80
2022/01/19 01:42:28;;;;;;;;;15.00;13.00;;;;;9.02;100.00;102710.06;5026332;28;45435;-77
2022/01/19 01:44:57;;;;;;;;;18.25;15.50;;;;;9.01;100.00;102704.00;5017019;28;45446;-80
2022/01/19 01:47:23;;;;;;;;;20.00;16.75;;;;;9.03;100.00;102707.63;5016018;28;45322;-79
2022/01/19 01:55:10;;;;;;;;;23.25;19.00;;;;;9.07;100.00;102696.75;5016702;28;45269;-79
2022/01/19 01:57:35;;;;;;;;;18.00;17.00;;;;;9.05;100.00;102688.00;5023656;28;46136;-79
2022/01/19 02:00:01;;;;;;;;;17.00;13.50;;;;;9.04;100.00;102682.69;5035945;28;45466;-79
2022/01/19 02:02:27;;;;;;;;;20.50;18.25;;;;;9.02;100.00;102671.31;5046637;28;45472;-79
2022/01/19 02:04:53;;;;;;;;;23.00;19.00;;;;;9.02;100.00;102676.47;5050537;28;45327;-79
2022/01/19 02:07:44;;;;;;;;;29.25;19.50;;;;;9.02;100.00;102673.91;5040453;28;46051;-79
2022/01/19 02:10:29;;;;;;;;;19.75;18.25;;;;;8.97;100.00;102671.84;5035540;28;45879;-78
2022/01/19 02:23:48;;;;;;;;;21.50;21.50;;;;;8.96;100.00;102640.75;5038787;28;45228;-79
2022/01/19 02:26:21;;;;;;;;;21.25;18.00;;;;;8.96;100.00;102631.28;5055320;28;45179;-79
2022/01/19 02:42:33;;;;;;;;;20.00;17.75;;;;;8.91;100.00;102591.25;5022735;28;45404;-79
2022/01/19 02:49:55;;;;;;;;;20.75;18.75;;;;;8.85;100.00;102585.63;5033182;28;45761;-79
2022/01/19 02:52:22;;;;;;;;;23.25;20.25;;;;;8.83;100.00;102585.50;5027792;28;45735;-79
2022/01/19 02:54:49;;;;;;;;;21.00;18.75;;;;;8.80;100.00;102576.63;5018384;28;45348;-80
2022/01/19 02:57:15;;;;;;;;;19.25;18.25;;;;;8.81;100.00;102576.72;5034479;28;45175;-79
2022/01/19 03:10:39;;;;;;;;;23.25;18.50;;;;;8.89;100.00;102569.59;5034521;28;45317;-78
2022/01/19 03:13:05;;;;;;;;;19.75;18.25;;;;;8.91;100.00;102564.53;5038586;28;45228;-79
2022/01/19 03:15:30;;;;;;;;;18.50;17.75;;;;;8.92;100.00;102568.94;5038309;28;45301;-80
2022/01/19 03:18:00;;;;;;;;;21.25;18.50;;;;;8.90;100.00;102568.81;5039223;28;45550;-80
2022/01/19 03:20:28;;;;;;;;;23.50;21.00;;;;;8.88;100.00;102562.63;5038695;28;45576;-79
2022/01/19 03:23:04;;;;;;;;;22.00;17.00;;;;;8.90;100.00;102549.81;5037970;28;45503;-80
2022/01/19 03:25:30;;;;;;;;;31.00;21.75;;;;;8.89;100.00;102548.94;5000265;28;45336;-79
2022/01/19 03:27:56;;;;;;;;;21.00;20.50;;;;;8.90;100.00;102540.41;5025586;28;45431;-80
2022/01/19 03:30:22;;;;;;;;;21.75;16.50;;;;;8.91;100.00;102544.75;5037780;28;45872;-79
2022/01/19 03:32:48;;;;;;;;;21.75;18.50;;;;;8.92;100.00;102553.44;5038035;28;45915;-79
2022/01/19 03:35:14;;;;;;;;;19.25;18.25;;;;;8.90;100.00;102550.75;5038616;28;45347;-80
2022/01/19 03:37:40;;;;;;;;;18.50;17.75;;;;;8.90;100.00;102553.31;5038371;28;45351;-80
2022/01/19 03:40:08;;;;;;;;;17.00;16.25;;;;;8.91;100.00;102546.47;5038135;28;45449;-80
2022/01/19 03:42:34;;;;;;;;;22.75;19.75;;;;;8.91;100.00;102547.34;5036546;28;45785;-80
2022/01/19 03:45:00;;;;;;;;;24.75;20.00;;;;;8.89;100.00;102553.19;5038224;28;45426;-80
2022/01/19 03:47:27;;;;;;;;;18.50;15.50;;;;;8.88;100.00;102549.72;5038861;28;45348;-78
2022/01/19 03:49:53;;;;;;;;;22.00;18.75;;;;;8.86;100.00;102547.75;5037921;28;46087;-79
2022/01/19 03:52:19;;;;;;;;;23.75;19.75;;;;;8.83;100.00;102545.84;5037998;28;45313;-80
2022/01/19 03:54:46;;;;;;;;;20.50;19.75;;;;;8.81;100.00;102545.72;5037829;28;45387;-81
2022/01/19 03:57:12;;;;;;;;;19.00;18.75;;;;;8.78;100.00;102537.72;5038132;28;45466;-81
2022/01/19 03:59:39;;;;;;;;;23.50;19.50;;;;;8.77;100.00;102532.44;5037463;28;45459;-80
2022/01/19 04:02:05;;;;;;;;;20.25;19.50;;;;;8.76;100.00;102530.66;5019855;28;45714;-81
2022/01/19 04:09:33;;;;;;;;;21.75;19.50;;;;;8.78;100.00;102523.94;5037297;28;45872;-80
2022/01/19 04:11:59;;;;;;;;;17.50;17.00;;;;;8.78;100.00;102524.81;5037808;28;45513;-81
2022/01/19 04:14:28;;;;;;;;;22.00;16.75;;;;;8.76;100.00;102523.78;5037960;28;45422;-80
2022/01/19 04:16:57;;;;;;;;;16.50;15.25;;;;;8.75;100.00;102524.56;5020105;28;45536;-81
2022/01/19 04:19:44;;;;;;;;;19.75;17.00;;;;;8.76;100.00;102525.47;5037638;28;45310;-81
2022/01/19 04:22:13;;;;;;;;;27.25;19.25;;;;;8.77;100.00;102519.53;5037619;28;45329;-81
2022/01/19 04:24:40;;;;;;;;;21.50;19.25;;;;;8.75;100.00;102523.69;5036212;28;45285;-80
2022/01/19 04:29:51;;;;;;;;;21.75;20.25;;;;;8.75;100.00;102523.69;5037059;28;45984;-80
2022/01/19 04:32:21;;;;;;;;;24.75;19.50;;;;;8.77;100.00;102524.72;5035910;28;45320;-80
2022/01/19 04:34:49;;;;;;;;;25.00;21.25;;;;;8.77;100.00;102530.75;5037289;28;45384;-79
2022/01/19 05:04:30;;;;;;;;;25.00;23.25;;;;;8.69;100.00;102525.78;5036568;28;45257;-80
2022/01/19 05:06:52;;;;;;;;;27.50;24.00;;;;;8.70;100.00;102527.56;5036043;28;45343;-80
2022/01/19 05:14:33;;;;;;;;;17.75;15.50;;;;;8.67;100.00;102531.72;5036431;28;45845;-80
2022/01/19 05:16:59;;;;;;;;;24.00;23.75;;;;;8.67;100.00;102526.56;5036570;28;45391;-80
2022/01/19 05:19:24;;;;;;;;;26.00;22.75;;;;;8.67;100.00;102529.13;5019386;28;45603;-81
2022/01/19 05:21:50;;;;;;;;;23.50;22.50;;;;;8.66;100.00;102529.91;5036288;28;45578;-81
2022/01/19 05:24:16;;;;;;;;;25.50;21.75;;;;;8.66;100.00;102529.00;5036799;28;45355;-81
2022/01/19 05:26:42;;;;;;;;;20.75;20.75;;;;;8.65;100.00;102532.34;5036676;28;45289;-80
2022/01/19 05:29:08;;;;;;;;;21.25;20.50;;;;;8.62;100.00;102525.28;5035406;28;45268;-80
2022/01/19 05:31:34;;;;;;;;;25.50;23.75;;;;;8.61;100.00;102526.03;5036246;28;45714;-80
2022/01/19 05:33:59;;;;;;;;;24.00;22.00;;;;;8.59;100.00;102522.44;5036762;28;45343;-78
2022/01/19 05:36:25;;;;;;;;;24.75;20.50;;;;;8.56;100.00;102523.88;5036668;28;45486;-80
2022/01/19 05:38:51;;;;;;;;;27.50;23.75;;;;;8.58;100.00;102519.75;5036401;28;45260;-82
2022/01/19 05:41:16;;;;;;;;;24.00;22.50;;;;;8.57;100.00;102516.28;5036341;28;45342;-82
2022/01/19 05:43:42;;;;;;;;;26.50;23.50;;;;;8.53;100.00;102506.47;5036392;28;45383;-80
2022/01/19 05:46:08;;;;;;;;;26.75;24.00;;;;;8.50;100.00;102514.88;5036990;28;45386;-82
2022/01/19 05:48:34;;;;;;;;;28.00;25.75;;;;;8.47;100.00;102519.78;5036541;28;45189;-81
2022/01/19 05:51:00;;;;;;;;;26.25;23.75;;;;;8.44;100.00;102516.91;5036215;28;45274;-80
2022/01/19 05:53:26;;;;;;;;;32.00;26.00;;;;;8.43;100.00;102519.38;5036646;28;45370;-82
2022/01/19 05:55:51;;;;;;;;;29.00;26.50;;;;;8.43;100.00;102509.03;5035993;28;45414;-82
2022/01/19 05:58:17;;;;;;;;;33.50;32.50;;;;;8.41;100.00;102508.94;5036478;28;45493;-81
2022/01/19 06:00:42;;;;;;;;;28.75;21.75;;;;;8.42;100.00;102507.25;5035483;28;45928;-81
2022/01/19 06:03:08;;;;;;;;;25.00;18.75;;;;;8.43;100.00;102511.63;5036104;28;45224;-80
2022/01/19 06:05:34;;;;;;;;;31.50;26.75;;;;;8.45;100.00;102512.66;5036152;28;45367;-80
2022/01/19 06:08:18;;;;;;;;;28.00;27.75;;;;;8.50;100.00;102511.38;5036082;28;45797;-82
2022/01/19 06:10:45;;;;;;;;;37.00;28.00;;;;;8.50;100.00;102513.94;5035506;28;46061;-81
2022/01/19 06:13:13;;;;;;;;;39.00;31.00;;;;;8.47;100.00;102519.78;5035831;28;45359;-81
2022/01/19 06:15:40;;;;;;;;;30.75;28.00;;;;;8.42;100.00;102508.16;5035979;28;45458;-81
2022/01/19 06:18:05;;;;;;;;;32.25;32.25;;;;;8.42;100.00;102514.97;5018074;28;45324;-80
2022/01/19 06:20:31;;;;;;;;;34.00;28.25;;;;;8.41;100.00;102503.78;5035635;28;45379;-79
2022/01/19 06:22:57;;;;;;;;;29.25;28.25;;;;;8.42;100.00;102512.41;5035670;28;45214;-77
2022/01/19 06:25:22;;;;;;;;;30.25;30.25;;;;;8.42;100.00;102505.59;5035680;28;45243;-79
2022/01/19 06:27:48;;;;;;;;;34.25;31.50;;;;;8.41;100.00;102505.44;5035806;28;45553;-79
2022/01/19 06:30:14;;;;;;;;;40.75;33.50;;;;;8.41;100.00;102498.63;5035081;28;45496;-79
2022/01/19 06:32:40;;;;;;;;;38.00;32.75;;;;;8.43;100.00;102501.31;5035339;28;45287;-80
2022/01/19 06:35:08;;;;;;;;;31.75;29.00;;;;;8.42;100.00;102499.50;5035443;28;45367;-81
2022/01/19 06:37:34;;;;;;;;;37.50;30.25;;;;;8.42;100.00;102505.59;5035903;28;45640;-80
2022/01/19 06:40:00;;;;;;;;;35.25;32.75;;;;;8.44;100.00;102514.31;5017364;28;46837;-82
2022/01/19 06:42:25;;;;;;;;;36.25;34.75;;;;;8.43;100.00;102504.78;5035926;28;45349;-80
2022/01/19 06:44:51;;;;;;;;;39.25;35.00;;;;;8.39;100.00;102499.25;5035316;28;45215;-82
2022/01/19 06:47:17;;;;;;;;;39.75;34.25;;;;;8.37;100.00;102501.72;5036568;28;45612;-81
2022/01/19 06:49:43;;;;;;;;;45.00;36.00;;;;;8.34;100.00;102493.72;5035628;28;45237;-78
2022/01/19 06:52:09;;;;;;;;;45.25;35.00;;;;;8.31;100.00;102498.66;5024668;28;45653;-79
2022/01/19 06:54:35;;;;;;;;;37.00;32.75;;;;;8.30;100.00;102499.41;5026160;28;45806;-82
2022/01/19 06:57:01;;;;;;;;;34.50;32.75;;;;;8.27;100.00;102497.47;5023485;28;45475;-81
2022/01/19 06:59:27;;;;;;;;;39.25;36.25;;;;;8.23;100.00;102491.94;5031547;28;45597;-83
2022/01/19 07:01:52;;;;;;;;;41.00;32.75;;;;;8.20;100.00;102493.50;5013834;28;46060;-84
2022/01/19 07:04:19;;;;;;;;;35.00;30.75;;;;;8.21;100.00;102490.13;5036279;28;45407;-81
2022/01/19 07:06:45;;;;;;;;;41.00;33.00;;;;;8.25;100.00;102496.47;5037424;28;45401;-83
2022/01/19 07:09:11;;;;;;;;;35.00;31.00;;;;;8.20;100.00;102492.59;5039083;28;45362;-84
2022/01/19 07:11:37;;;;;;;;;35.50;31.25;;;;;8.18;100.00;102502.81;5045961;28;45276;-85
2022/01/19 07:14:04;;;;;;;;;41.50;33.75;;;;;8.19;100.00;102495.94;5035027;28;45194;-83
2022/01/19 07:16:31;;;;;;;;;38.25;34.50;;;;;8.14;100.00;102494.69;5034974;28;46220;-84
2022/01/19 07:18:57;;;;;;;;;39.00;30.75;;;;;8.08;100.00;102496.75;5040597;28;45590;-78
2022/01/19 07:21:22;;;;;;;;;42.00;37.00;;;;;8.08;100.00;102494.16;5037338;28;46053;-79
2022/01/19 07:23:48;;;;;;;;;38.50;32.00;;;;;8.06;100.00;102504.38;5038367;28;45450;-76
2022/01/19 07:26:14;;;;;;;;;37.75;32.25;;;;;8.05;100.00;102507.72;5039093;28;45574;-77
2022/01/19 07:28:40;;;;;;;;;35.75;32.25;;;;;8.05;100.00;102507.72;5017750;28;47596;-79
2022/01/19 07:31:05;;;;;;;;;42.75;37.00;;;;;8.05;100.00;102508.59;5028321;28;45479;-88
2022/01/19 07:33:32;;;;;;;;;35.25;32.75;;;;;8.02;100.00;102510.03;5029013;28;45316;-88
2022/01/19 07:35:59;;;;;;;;;27.50;25.00;;;;;8.03;100.00;102514.44;5040557;28;45400;-87
2022/01/19 07:38:26;;;;;;;;;41.75;35.50;;;;;8.04;100.00;102519.69;5047518;28;46101;-81
2022/01/19 07:40:52;;;;;;;;;41.50;33.50;;;;;8.01;100.00;102505.66;5036618;28;45834;-86
2022/01/19 07:43:18;;;;;;;;;38.50;31.25;;;;;7.99;100.00;102507.22;5037403;28;45425;-87
2022/01/19 07:45:45;;;;;;;;;34.25;28.75;;;;;7.99;100.00;102508.13;5031749;28;45408;-80
2022/01/19 07:48:10;;;;;;;;;36.25;33.50;;;;;8.02;100.00;102510.97;5021626;28;45360;-85
2022/01/19 07:50:37;;;;;;;;;39.50;34.75;;;;;8.05;100.00;102507.72;5038271;28;45283;-77
2022/01/19 07:53:03;;;;;;;;;40.00;34.75;;;;;8.08;100.00;102510.56;5020032;28;45411;-77
2022/01/19 07:55:29;;;;;;;;;32.50;29.00;;;;;8.05;100.00;102507.72;5037468;28;45339;-79
2022/01/19 07:57:55;;;;;;;;;41.50;34.25;;;;;8.04;100.00;102514.53;5010290;28;46942;-78
2022/01/19 08:00:21;;;;;;;;;39.75;35.00;;;;;8.06;100.00;102506.94;5015169;28;45377;-83
2022/01/19 08:02:49;;;;;;;;;35.75;30.00;;;;;8.12;100.00;102501.41;5029830;28;45783;-90
2022/01/19 08:05:17;;;;;;;;;43.75;36.00;;;;;8.13;100.00;102498.03;5032215;28;45465;-84
2022/01/19 08:07:42;;;;;;;;;35.00;30.50;;;;;8.14;100.00;102503.31;5016366;28;48293;-86
2022/01/19 08:10:10;;;;;;;;;41.25;33.50;;;;;8.17;100.00;102506.16;5021271;28;45368;-84
2022/01/19 08:12:37;;;;;;;;;29.00;25.00;;;;;8.13;100.00;102495.47;5016407;28;45424;-84
2022/01/19 08:15:03;;;;;;;;;39.50;31.25;;;;;8.10;100.00;102503.81;5027827;28;45259;-86
2022/01/19 08:17:28;;;;;;;;;40.00;32.25;;;;;8.09;100.00;102508.88;5046319;28;45399;-88
2022/01/19 08:19:56;;;;;;;;;41.00;35.00;;;;;8.05;100.00;102518.94;5040559;28;45462;-85
2022/01/19 08:22:21;;;;;;;;;31.25;26.50;;;;;7.99;100.00;102513.28;5028509;28;45656;-90
2022/01/19 08:24:47;;;;;;;;;36.00;33.00;;;;;8.05;100.00;102520.63;5043792;28;45513;-90
2022/01/19 08:27:13;;;;;;;;;35.25;31.25;;;;;8.08;100.00;102520.88;5030478;28;45170;-91
2022/01/19 08:29:39;;;;;;;;;38.75;32.75;;;;;8.13;100.00;102529.00;5036683;28;45837;-89
2022/01/19 08:32:05;;;;;;;;;41.50;35.00;;;;;8.14;100.00;102518.78;5036523;28;45351;-78
2022/01/19 08:34:31;;;;;;;;;31.75;29.00;;;;;8.20;100.00;102524.47;5024304;28;45269;-78
2022/01/19 08:36:58;;;;;;;;;38.50;28.50;;;;;8.21;100.00;102528.84;5035421;28;46144;-77
2022/01/19 08:39:24;;;;;;;;;36.50;31.00;;;;;8.22;100.00;102529.75;4999105;28;45859;-77
2022/01/19 08:41:51;;;;;;;;;35.75;30.00;;;;;8.27;100.00;102532.72;4999883;28;45249;-77
2022/01/19 08:44:16;;;;;;;;;37.50;31.50;;;;;8.29;100.00;102539.78;5018070;28;45567;-77
2022/01/19 08:46:43;;;;;;;;;40.25;33.75;;;;;8.32;100.00;102546.88;5017223;28;45922;-81
2022/01/19 08:49:09;;;;;;;;;43.00;34.75;;;;;8.32;100.00;102545.22;5016976;28;46010;-77
2022/01/19 08:51:36;;;;;;;;;35.25;32.25;;;;;8.35;100.00;102541.97;5018011;28;45374;-82
2022/01/19 08:54:03;;;;;;;;;41.00;33.75;;;;;8.34;100.00;102546.25;5017876;28;45344;-84
2022/01/19 08:56:29;;;;;;;;;42.50;35.25;;;;;8.29;100.00;102550.13;4999209;28;47037;-81
2022/01/19 08:58:55;;;;;;;;;39.00;33.00;;;;;8.24;100.00;102542.75;5030538;28;45473;-78
2022/01/19 09:01:21;;;;;;;;;33.25;29.00;;;;;8.20;100.00;102547.69;5016690;28;45464;-78
2022/01/19 09:03:47;;;;;;;;;36.25;32.00;;;;;8.21;100.00;102551.16;5018015;28;45361;-79
2022/01/19 09:06:13;;;;;;;;;32.50;28.50;;;;;8.21;100.00;102546.00;5018384;28;46731;-79
2022/01/19 09:08:38;;;;;;;;;33.00;30.00;;;;;8.22;100.00;102552.97;5036273;28;45320;-78
2022/01/19 09:11:05;;;;;;;;;33.50;30.00;;;;;8.22;100.00;102547.81;5036295;28;45454;-79
2022/01/19 09:13:32;;;;;;;;;38.00;31.25;;;;;8.25;100.00;102560.06;5036684;28;45395;-78
2022/01/19 09:15:57;;;;;;;;;38.50;30.75;;;;;8.25;100.00;102557.47;5035910;28;46134;-79
2022/01/19 09:18:23;;;;;;;;;36.25;30.00;;;;;8.28;100.00;102561.22;5036078;28;45386;-77
2022/01/19 09:20:49;;;;;;;;;45.00;34.50;;;;;8.31;100.00;102563.16;5036044;28;45351;-79
2022/01/19 09:23:14;;;;;;;;;41.50;34.25;;;;;8.34;100.00;102572.06;5036413;28;45262;-79
2022/01/19 09:25:40;;;;;;;;;37.75;34.25;;;;;8.35;100.00;102560.97;5035576;28;45368;-79
2022/01/19 09:28:07;;;;;;;;;43.00;34.50;;;;;8.39;100.00;102572.44;5035815;28;45273;-79
2022/01/19 09:30:34;;;;;;;;;42.50;35.00;;;;;8.35;100.00;102568.69;5035450;28;45458;-80
2022/01/19 09:33:08;;;;;;;;;38.25;34.50;;;;;8.32;100.00;102573.59;5035905;28;45892;-78
2022/01/19 09:38:27;;;;;;;;;33.50;28.00;;;;;8.36;100.00;102567.94;5014460;28;46046;-79
2022/01/19 09:40:53;;;;;;;;;31.75;28.25;;;;;8.38;100.00;102570.63;5035867;28;45242;-79
2022/01/19 09:43:22;;;;;;;;;40.75;34.25;;;;;8.41;100.00;102559.63;5036352;28;45710;-78
2022/01/19 09:45:49;;;;;;;;;45.00;33.00;;;;;8.44;100.00;102571.09;5017345;28;46490;-79
2022/01/19 09:48:15;;;;;;;;;40.25;33.25;;;;;8.44;100.00;102577.97;5035799;28;45268;-79
2022/01/19 09:50:41;;;;;;;;;35.00;28.25;;;;;8.43;100.00;102560.66;5035574;28;45814;-79
2022/01/19 09:53:07;;;;;;;;;45.25;35.00;;;;;8.45;100.00;102560.00;5036072;28;45351;-78
2022/01/19 09:55:35;;;;;;;;;38.25;34.00;;;;;8.51;100.00;102564.81;5035819;28;45378;-79
2022/01/19 09:58:00;;;;;;;;;35.75;31.00;;;;;8.52;100.00;102564.94;5035374;28;45973;-79
2022/01/19 10:00:27;;;;;;;;;36.00;33.75;;;;;8.54;100.00;102566.72;5035803;28;45292;-79
2022/01/19 10:03:15;;;;;;;;;36.00;32.50;;;;;8.56;100.00;102558.34;5035372;28;45363;-78
2022/01/19 10:06:06;;;;;;;;;47.00;34.00;;;;;8.59;100.00;102561.16;5035217;28;45302;-77
2022/01/19 10:08:45;;;;;;;;;38.75;32.50;;;;;8.61;100.00;102553.56;5035995;28;45949;-81
2022/01/19 10:11:20;;;;;;;;;45.50;37.25;;;;;8.61;100.00;102544.13;5035559;28;45301;-79
2022/01/19 10:17:04;;;;;;;;;45.50;36.50;;;;;8.62;100.00;102553.66;5035286;28;45798;-78
2022/01/19 10:19:42;;;;;;;;;39.50;34.50;;;;;8.61;100.00;102551.88;5034076;28;45721;-79
2022/01/19 10:22:14;;;;;;;;;38.25;31.50;;;;;8.65;100.00;102555.59;5035653;28;45308;-80
2022/01/19 10:24:52;;;;;;;;;42.75;36.00;;;;;8.69;100.00;102557.66;5034052;28;45447;-79
2022/01/19 10:27:32;;;;;;;;;38.75;33.25;;;;;8.70;100.00;102558.53;5035000;28;45488;-79
2022/01/19 10:30:09;;;;;;;;;46.75;36.50;;;;;8.74;100.00;102552.84;5016588;28;45652;-78
2022/01/19 10:32:41;;;;;;;;;44.75;35.25;;;;;8.71;100.00;102544.84;5033820;28;45426;-79
2022/01/19 10:35:20;;;;;;;;;43.50;36.75;;;;;8.76;100.00;102565.09;5035864;28;45212;-78
2022/01/19 10:37:49;;;;;;;;;48.00;36.50;;;;;8.74;100.00;102556.34;5017094;28;47735;-77
2022/01/19 10:40:19;;;;;;;;;48.75;37.50;;;;;8.71;100.00;102574.19;5017888;28;45784;-78
2022/01/19 10:42:47;;;;;;;;;41.75;36.00;;;;;8.63;100.00;102563.22;5038324;28;45411;-78
2022/01/19 10:45:15;;;;;;;;;47.75;37.75;;;;;8.58;100.00;102555.88;5020957;28;45535;-79
2022/01/19 10:47:58;;;;;;;;;46.50;37.00;;;;;8.59;100.00;102550.84;5038161;28;46352;-77
2022/01/19 10:50:28;;;;;;;;;44.25;37.00;;;;;8.55;100.00;102547.88;5044428;28;45311;-78
2022/01/19 10:52:57;;;;;;;;;52.25;38.75;;;;;8.57;100.00;102547.25;5028749;28;46031;-77
2022/01/19 10:55:23;;;;;;;;;45.25;36.75;;;;;8.60;100.00;102542.31;5028246;28;45453;-78
2022/01/19 10:57:53;;;;;;;;;32.25;23.25;;;;;8.59;100.00;102549.94;5021390;28;46017;-79
2022/01/19 11:00:24;;;;;;;;;53.00;40.25;;;;;8.56;100.00;102537.69;5019361;28;45885;-76
2022/01/19 11:02:56;;;;;;;;;48.25;40.75;;;;;8.58;100.00;102533.56;5025826;28;45274;-78
2022/01/19 11:05:42;;;;;;;;;53.50;43.50;;;;;8.60;100.00;102534.56;5030656;28;45462;-86
2022/01/19 11:08:08;;;;;;;;;49.00;40.25;;;;;8.62;100.00;102537.28;5033275;28;45954;-81
2022/01/19 11:10:41;;;;;;;;;51.75;39.00;;;;;8.59;100.00;102519.84;5025686;28;45787;-81
2022/01/19 11:13:13;;;;;;;;;54.75;42.25;;;;;8.60;100.00;102519.06;5022910;28;45422;-81
2022/01/19 11:15:40;;;;;;;;;56.25;42.25;;;;;8.57;100.00;102516.28;5038735;28;45556;-85
2022/01/19 11:18:07;;;;;;;;;55.00;43.25;;;;;8.58;100.00;102518.06;5025159;28;45384;-85
2022/01/19 11:20:45;;;;;;;;;54.25;43.50;;;;;8.57;100.00;102512.78;5018920;28;45339;-83
2022/01/19 11:23:47;;;;;;;;;56.00;43.50;;;;;8.56;100.00;102519.63;5026981;28;45308;-82
2022/01/19 11:26:16;;;;;;;;;56.75;45.00;;;;;8.58;100.00;102510.34;5040678;28;45549;-85
2022/01/19 11:28:46;;;;;;;;;55.25;43.25;;;;;8.59;100.00;102519.84;5041887;28;45320;-83
2022/01/19 11:31:37;;;;;;;;;51.25;41.25;;;;;8.57;100.00;102505.94;5041826;28;45909;-82
2022/01/19 11:34:03;;;;;;;;;52.25;42.50;;;;;8.57;100.00;102512.78;5002358;28;45306;-84
2022/01/19 11:36:34;;;;;;;;;59.75;46.00;;;;;8.56;100.00;102516.13;5027295;28;46480;-83
2022/01/19 11:39:09;;;;;;;;;57.25;44.75;;;;;8.52;100.00;102508.16;5040309;28;45371;-86
2022/01/19 11:41:49;;;;;;;;;55.75;44.75;;;;;8.53;100.00;102511.63;5036854;28;45833;-83
2022/01/19 11:44:37;;;;;;;;;54.25;44.00;;;;;8.53;100.00;102501.31;5038095;28;45366;-84
2022/01/19 11:47:09;;;;;;;;;55.75;43.50;;;;;8.56;100.00;102493.81;5036522;28;45433;-80
2022/01/19 11:49:57;;;;;;;;;50.50;40.50;;;;;8.60;100.00;102489.78;5036955;28;46209;-82
2022/01/19 11:52:28;;;;;;;;;52.25;40.00;;;;;8.61;100.00;102487.31;5049012;28;45962;-82
2022/01/19 11:55:15;;;;;;;;;56.00;42.75;;;;;8.58;100.00;102481.94;5045962;28;45478;-80
2022/01/19 11:57:43;;;;;;;;;53.25;39.75;;;;;8.53;100.00;102478.06;5017762;28;45385;-80
2022/01/19 12:00:11;;;;;;;;;52.75;41.25;;;;;8.56;100.00;102475.75;5025869;28;45722;-81
2022/01/19 12:02:40;;;;;;;;;51.50;38.00;;;;;8.58;100.00;102476.78;5005858;28;45822;-78
2022/01/19 12:05:07;;;;;;;;;49.75;40.75;;;;;8.62;100.00;102478.78;5006441;28;45424;-87
2022/01/19 12:07:42;;;;;;;;;37.00;35.75;;;;;8.67;100.00;102477.50;5037122;28;45425;-80
2022/01/19 12:10:15;;;;;;;;;46.75;40.75;;;;;8.70;100.00;102476.84;5038133;28;45390;-79
2022/01/19 12:13:07;;;;;;;;;46.75;39.75;;;;;8.71;100.00;102472.56;5031115;28;45849;-83
2022/01/19 12:16:03;;;;;;;;;52.00;41.00;;;;;8.70;100.00;102469.09;5039632;28;45287;-80
2022/01/19 12:18:51;;;;;;;;;52.25;38.75;;;;;8.70;100.00;102463.91;5032886;28;45652;-80
2022/01/19 12:21:41;;;;;;;;;51.50;39.75;;;;;8.70;100.00;102453.59;5037675;28;46245;-79
2022/01/19 12:24:30;;;;;;;;;46.50;37.00;;;;;8.73;100.00;102464.16;5041482;28;45180;-82
2022/01/19 12:27:02;;;;;;;;;40.75;36.00;;;;;8.73;100.00;102453.84;5019871;28;45369;-83
2022/01/19 12:29:37;;;;;;;;;46.00;38.50;;;;;8.72;100.00;102462.38;5017828;28;45520;-82
2022/01/19 12:32:04;;;;;;;;;35.75;34.25;;;;;8.71;100.00;102454.47;5016886;28;46181;-81
2022/01/19 12:34:48;;;;;;;;;38.75;34.75;;;;;8.70;100.00;102448.44;5017123;28;45416;-84
2022/01/19 12:37:32;;;;;;;;;32.75;29.75;;;;;8.71;100.00;102447.66;5017180;28;45170;-83
2022/01/19 12:40:05;;;;;;;;;40.50;35.00;;;;;8.73;100.00;102448.69;5035655;28;45524;-84
2022/01/19 12:42:45;;;;;;;;;28.75;23.25;;;;;8.72;100.00;102443.38;5037117;28;45260;-82
2022/01/19 12:45:35;;;;;;;;;39.00;33.50;;;;;8.72;100.00;102444.28;5036990;28;45880;-82
2022/01/19 12:48:06;;;;;;;;;35.25;33.50;;;;;8.70;100.00;102439.75;5037836;28;45251;-82
2022/01/19 12:50:44;;;;;;;;;42.00;29.75;;;;;8.74;100.00;102434.06;5039539;28;45482;-84
2022/01/19 12:53:15;;;;;;;;;35.75;28.75;;;;;8.80;100.00;102421.66;5038012;28;45313;-82